sensor_id;sensor_type;location;lat;lon;timestamp;temperature;humidity
22430;DHT22;11382;48.086;11.632;2023-06-26T00:01:52;16.50;99.90
22430;DHT22;11382;48.086;11.632;2023-06-26T00:04:21;16.50;99.90
22430;DHT22;11382;48.086;11.632;2023-06-26T00:06:52;16.50;99.90
22430;DHT22;11382;48.086;11.632;2023-06-26T00:09:20;16.40;99.90
22430;DHT22;11382;48.086;11.632;2023-06-26T00:11:50;16.40;99.90
22430;DHT22;11382;48.086;11.632;2023-06-26T00:14:18;16.30;99.90
22430;DHT22;11382;48.086;11.632;2023-06-26T00:16:49;16.30;99.90
22430;DHT22;11382;48.086;11.632;2023-06-26T00:19:17;16.20;99.90
22430;DHT22;11382;48.086;11.632;2023-06-26T00:21:46;16.10;99.90
22430;DHT22;11382;48.086;11.632;2023-06-26T00:24:15;16.10;99.90
22430;DHT22;11382;48.086;11.632;2023-06-26T00:26:46;16.10;99.90
22430;DHT22;11382;48.086;11.632;2023-06-26T00:29:16;16.00;99.90
22430;DHT22;11382;48.086;11.632;2023-06-26T00:31:45;16.10;99.90
22430;DHT22;11382;48.086;11.632;2023-06-26T00:34:15;16.00;99.90
22430;DHT22;11382;48.086;11.632;2023-06-26T00:36:46;15.90;99.90
22430;DHT22;11382;48.086;11.632;2023-06-26T00:39:14;15.80;99.90
22430;DHT22;11382;48.086;11.632;2023-06-26T00:41:43;15.80;99.90
22430;DHT22;11382;48.086;11.632;2023-06-26T00:44:11;15.80;99.90
22430;DHT22;11382;48.086;11.632;2023-06-26T00:46:43;15.80;99.90
22430;DHT22;11382;48.086;11.632;2023-06-26T00:49:13;15.70;99.90
22430;DHT22;11382;48.086;11.632;2023-06-26T00:51:44;15.60;99.90
22430;DHT22;11382;48.086;11.632;2023-06-26T00:54:13;15.50;99.90
22430;DHT22;11382;48.086;11.632;2023-06-26T00:56:48;15.50;99.90
22430;DHT22;11382;48.086;11.632;2023-06-26T00:59:17;15.50;99.90
22430;DHT22;11382;48.086;11.632;2023-06-26T01:01:49;15.50;99.90
22430;DHT22;11382;48.086;11.632;2023-06-26T01:04:17;15.50;99.90
22430;DHT22;11382;48.086;11.632;2023-06-26T01:06:48;15.40;99.90
22430;DHT22;11382;48.086;11.632;2023-06-26T01:09:18;15.20;99.90
22430;DHT22;11382;48.086;11.632;2023-06-26T01:11:50;15.20;99.90
22430;DHT22;11382;48.086;11.632;2023-06-26T01:14:21;15.10;99.90
22430;DHT22;11382;48.086;11.632;2023-06-26T01:16:51;15.00;99.90
22430;DHT22;11382;48.086;11.632;2023-06-26T01:19:26;15.00;99.90
22430;DHT22;11382;48.086;11.632;2023-06-26T01:22:00;14.90;99.90
22430;DHT22;11382;48.086;11.632;2023-06-26T01:24:33;15.00;99.90
22430;DHT22;11382;48.086;11.632;2023-06-26T01:27:05;15.00;99.90
22430;DHT22;11382;48.086;11.632;2023-06-26T01:29:34;14.90;99.90
22430;DHT22;11382;48.086;11.632;2023-06-26T01:32:05;14.90;99.90
22430;DHT22;11382;48.086;11.632;2023-06-26T01:34:36;14.90;99.90
22430;DHT22;11382;48.086;11.632;2023-06-26T01:37:04;14.80;99.90
22430;DHT22;11382;48.086;11.632;2023-06-26T01:39:33;14.80;99.90
22430;DHT22;11382;48.086;11.632;2023-06-26T01:42:01;14.90;99.90
22430;DHT22;11382;48.086;11.632;2023-06-26T01:44:35;14.90;99.90
22430;DHT22;11382;48.086;11.632;2023-06-26T01:47:06;14.90;99.90
22430;DHT22;11382;48.086;11.632;2023-06-26T01:49:43;15.00;99.90
22430;DHT22;11382;48.086;11.632;2023-06-26T01:52:20;14.90;99.90
22430;DHT22;11382;48.086;11.632;2023-06-26T01:54:56;15.00;99.90
22430;DHT22;11382;48.086;11.632;2023-06-26T01:57:27;14.90;99.90
22430;DHT22;11382;48.086;11.632;2023-06-26T01:59:58;14.90;99.90
22430;DHT22;11382;48.086;11.632;2023-06-26T02:02:28;14.80;99.90
22430;DHT22;11382;48.086;11.632;2023-06-26T02:04:57;14.80;99.90
22430;DHT22;11382;48.086;11.632;2023-06-26T02:07:25;14.70;99.90
22430;DHT22;11382;48.086;11.632;2023-06-26T02:09:55;14.70;99.90
22430;DHT22;11382;48.086;11.632;2023-06-26T02:12:23;14.70;99.90
22430;DHT22;11382;48.086;11.632;2023-06-26T02:14:51;14.80;99.90
22430;DHT22;11382;48.086;11.632;2023-06-26T02:17:29;14.80;99.90
22430;DHT22;11382;48.086;11.632;2023-06-26T02:19:59;14.80;99.90
22430;DHT22;11382;48.086;11.632;2023-06-26T02:22:27;14.80;99.90
22430;DHT22;11382;48.086;11.632;2023-06-26T02:24:57;14.80;99.90
22430;DHT22;11382;48.086;11.632;2023-06-26T02:27:28;14.80;99.90
22430;DHT22;11382;48.086;11.632;2023-06-26T02:29:56;14.70;99.90
22430;DHT22;11382;48.086;11.632;2023-06-26T02:32:25;14.70;99.90
22430;DHT22;11382;48.086;11.632;2023-06-26T02:34:56;14.60;99.90
22430;DHT22;11382;48.086;11.632;2023-06-26T02:37:27;14.60;99.90
22430;DHT22;11382;48.086;11.632;2023-06-26T02:39:58;14.60;99.90
22430;DHT22;11382;48.086;11.632;2023-06-26T02:42:26;14.60;99.90
22430;DHT22;11382;48.086;11.632;2023-06-26T02:44:57;14.60;99.90
22430;DHT22;11382;48.086;11.632;2023-06-26T02:47:29;14.60;99.90
22430;DHT22;11382;48.086;11.632;2023-06-26T02:49:57;14.60;99.90
22430;DHT22;11382;48.086;11.632;2023-06-26T02:52:28;14.60;99.90
22430;DHT22;11382;48.086;11.632;2023-06-26T02:54:58;14.60;99.90
22430;DHT22;11382;48.086;11.632;2023-06-26T02:57:27;14.70;99.90
22430;DHT22;11382;48.086;11.632;2023-06-26T02:59:56;14.70;99.90
22430;DHT22;11382;48.086;11.632;2023-06-26T03:02:26;14.70;99.90
22430;DHT22;11382;48.086;11.632;2023-06-26T03:04:56;14.70;99.90
22430;DHT22;11382;48.086;11.632;2023-06-26T03:07:24;14.70;99.90
22430;DHT22;11382;48.086;11.632;2023-06-26T03:09:55;14.70;99.90
22430;DHT22;11382;48.086;11.632;2023-06-26T03:12:24;14.60;99.90
22430;DHT22;11382;48.086;11.632;2023-06-26T03:14:52;14.60;99.90
22430;DHT22;11382;48.086;11.632;2023-06-26T03:17:20;14.50;99.90
22430;DHT22;11382;48.086;11.632;2023-06-26T03:19:57;14.50;99.90
22430;DHT22;11382;48.086;11.632;2023-06-26T03:22:34;14.50;99.90
22430;DHT22;11382;48.086;11.632;2023-06-26T03:25:03;14.50;99.90
22430;DHT22;11382;48.086;11.632;2023-06-26T03:27:34;14.50;99.90
22430;DHT22;11382;48.086;11.632;2023-06-26T03:30:06;14.50;99.90
22430;DHT22;11382;48.086;11.632;2023-06-26T03:32:38;14.50;99.90
22430;DHT22;11382;48.086;11.632;2023-06-26T03:35:11;14.50;99.90
22430;DHT22;11382;48.086;11.632;2023-06-26T03:37:44;14.60;99.90
22430;DHT22;11382;48.086;11.632;2023-06-26T03:40:13;14.60;99.90
22430;DHT22;11382;48.086;11.632;2023-06-26T03:42:46;14.70;99.90
22430;DHT22;11382;48.086;11.632;2023-06-26T03:45:19;14.70;99.90
22430;DHT22;11382;48.086;11.632;2023-06-26T03:47:54;14.70;99.90
22430;DHT22;11382;48.086;11.632;2023-06-26T03:50:32;14.70;99.90
22430;DHT22;11382;48.086;11.632;2023-06-26T03:53:02;14.80;99.90
22430;DHT22;11382;48.086;11.632;2023-06-26T03:55:34;15.00;99.90
22430;DHT22;11382;48.086;11.632;2023-06-26T03:58:03;15.00;99.90
22430;DHT22;11382;48.086;11.632;2023-06-26T04:00:32;14.90;99.90
22430;DHT22;11382;48.086;11.632;2023-06-26T04:03:03;15.00;99.90
22430;DHT22;11382;48.086;11.632;2023-06-26T04:05:35;15.00;99.90
22430;DHT22;11382;48.086;11.632;2023-06-26T04:08:04;15.10;99.90
22430;DHT22;11382;48.086;11.632;2023-06-26T04:10:32;15.20;99.90
22430;DHT22;11382;48.086;11.632;2023-06-26T04:13:01;15.40;99.90
22430;DHT22;11382;48.086;11.632;2023-06-26T04:15:30;15.60;99.90
22430;DHT22;11382;48.086;11.632;2023-06-26T04:17:58;15.80;99.90
22430;DHT22;11382;48.086;11.632;2023-06-26T04:20:27;16.20;99.90
22430;DHT22;11382;48.086;11.632;2023-06-26T04:22:57;16.60;99.90
22430;DHT22;11382;48.086;11.632;2023-06-26T04:25:25;17.30;99.90
22430;DHT22;11382;48.086;11.632;2023-06-26T04:27:59;17.80;99.90
22430;DHT22;11382;48.086;11.632;2023-06-26T04:30:28;18.60;99.90
22430;DHT22;11382;48.086;11.632;2023-06-26T04:32:57;18.90;99.90
22430;DHT22;11382;48.086;11.632;2023-06-26T04:35:25;19.20;99.90
22430;DHT22;11382;48.086;11.632;2023-06-26T04:37:57;19.30;99.90
22430;DHT22;11382;48.086;11.632;2023-06-26T04:40:27;19.40;99.90
22430;DHT22;11382;48.086;11.632;2023-06-26T04:42:57;19.80;99.90
22430;DHT22;11382;48.086;11.632;2023-06-26T04:45:26;20.00;99.90
22430;DHT22;11382;48.086;11.632;2023-06-26T04:47:56;20.40;99.90
22430;DHT22;11382;48.086;11.632;2023-06-26T04:50:31;20.70;99.90
22430;DHT22;11382;48.086;11.632;2023-06-26T04:53:01;21.20;99.90
22430;DHT22;11382;48.086;11.632;2023-06-26T04:55:30;21.80;99.90
22430;DHT22;11382;48.086;11.632;2023-06-26T04:57:58;22.00;99.90
22430;DHT22;11382;48.086;11.632;2023-06-26T05:00:29;22.00;99.90
22430;DHT22;11382;48.086;11.632;2023-06-26T05:02:59;22.50;99.90
22430;DHT22;11382;48.086;11.632;2023-06-26T05:05:32;22.70;99.90
22430;DHT22;11382;48.086;11.632;2023-06-26T05:08:16;23.40;99.10
22430;DHT22;11382;48.086;11.632;2023-06-26T05:10:48;24.30;97.20
22430;DHT22;11382;48.086;11.632;2023-06-26T05:13:20;24.30;96.00
22430;DHT22;11382;48.086;11.632;2023-06-26T05:15:49;25.00;95.00
22430;DHT22;11382;48.086;11.632;2023-06-26T05:18:17;25.20;94.00
22430;DHT22;11382;48.086;11.632;2023-06-26T05:20:49;25.30;93.10
22430;DHT22;11382;48.086;11.632;2023-06-26T05:23:19;25.80;92.30
22430;DHT22;11382;48.086;11.632;2023-06-26T05:25:57;26.20;91.40
22430;DHT22;11382;48.086;11.632;2023-06-26T05:28:31;26.30;90.80
22430;DHT22;11382;48.086;11.632;2023-06-26T05:31:03;26.80;90.20
22430;DHT22;11382;48.086;11.632;2023-06-26T05:33:35;27.10;88.80
22430;DHT22;11382;48.086;11.632;2023-06-26T05:36:10;27.60;87.10
22430;DHT22;11382;48.086;11.632;2023-06-26T05:38:42;28.20;83.90
22430;DHT22;11382;48.086;11.632;2023-06-26T05:41:12;28.90;82.80
22430;DHT22;11382;48.086;11.632;2023-06-26T05:43:42;29.60;80.10
22430;DHT22;11382;48.086;11.632;2023-06-26T05:46:11;30.10;76.80
22430;DHT22;11382;48.086;11.632;2023-06-26T05:48:39;30.40;75.80
22430;DHT22;11382;48.086;11.632;2023-06-26T05:51:11;30.70;73.80
22430;DHT22;11382;48.086;11.632;2023-06-26T05:53:43;30.50;73.80
22430;DHT22;11382;48.086;11.632;2023-06-26T05:56:15;31.00;71.90
22430;DHT22;11382;48.086;11.632;2023-06-26T05:58:47;31.30;70.20
22430;DHT22;11382;48.086;11.632;2023-06-26T06:01:34;32.10;69.10
22430;DHT22;11382;48.086;11.632;2023-06-26T06:04:04;32.60;66.80
22430;DHT22;11382;48.086;11.632;2023-06-26T06:06:33;33.50;63.90
22430;DHT22;11382;48.086;11.632;2023-06-26T06:09:06;34.40;59.90
22430;DHT22;11382;48.086;11.632;2023-06-26T06:11:38;34.30;58.40
22430;DHT22;11382;48.086;11.632;2023-06-26T06:14:08;34.50;57.10
22430;DHT22;11382;48.086;11.632;2023-06-26T06:16:37;34.20;56.10
22430;DHT22;11382;48.086;11.632;2023-06-26T06:19:10;34.60;55.30
22430;DHT22;11382;48.086;11.632;2023-06-26T06:21:42;35.40;54.40
22430;DHT22;11382;48.086;11.632;2023-06-26T06:24:16;35.80;52.80
22430;DHT22;11382;48.086;11.632;2023-06-26T06:26:44;37.00;51.70
22430;DHT22;11382;48.086;11.632;2023-06-26T06:29:34;37.10;49.70
22430;DHT22;11382;48.086;11.632;2023-06-26T06:32:04;37.60;49.00
22430;DHT22;11382;48.086;11.632;2023-06-26T06:34:38;38.30;47.60
22430;DHT22;11382;48.086;11.632;2023-06-26T06:37:31;38.40;46.70
22430;DHT22;11382;48.086;11.632;2023-06-26T06:40:05;39.10;45.40
22430;DHT22;11382;48.086;11.632;2023-06-26T06:42:36;40.20;44.80
22430;DHT22;11382;48.086;11.632;2023-06-26T06:45:12;39.80;43.00
22430;DHT22;11382;48.086;11.632;2023-06-26T06:47:45;39.20;42.00
22430;DHT22;11382;48.086;11.632;2023-06-26T06:50:14;39.60;42.30
22430;DHT22;11382;48.086;11.632;2023-06-26T06:52:48;40.50;41.90
22430;DHT22;11382;48.086;11.632;2023-06-26T06:55:36;41.20;40.70
22430;DHT22;11382;48.086;11.632;2023-06-26T06:58:05;41.40;40.00
22430;DHT22;11382;48.086;11.632;2023-06-26T07:00:44;41.60;39.80
22430;DHT22;11382;48.086;11.632;2023-06-26T07:03:20;42.10;39.10
22430;DHT22;11382;48.086;11.632;2023-06-26T07:05:50;41.70;38.50
22430;DHT22;11382;48.086;11.632;2023-06-26T07:08:19;40.70;38.80
22430;DHT22;11382;48.086;11.632;2023-06-26T07:11:13;41.30;39.00
22430;DHT22;11382;48.086;11.632;2023-06-26T07:13:44;41.60;38.60
22430;DHT22;11382;48.086;11.632;2023-06-26T07:16:19;42.00;38.10
22430;DHT22;11382;48.086;11.632;2023-06-26T07:18:53;41.40;38.20
22430;DHT22;11382;48.086;11.632;2023-06-26T07:21:33;41.00;39.40
22430;DHT22;11382;48.086;11.632;2023-06-26T07:24:06;41.90;38.70
22430;DHT22;11382;48.086;11.632;2023-06-26T07:26:51;42.10;38.40
22430;DHT22;11382;48.086;11.632;2023-06-26T07:29:23;42.20;38.00
22430;DHT22;11382;48.086;11.632;2023-06-26T07:31:56;41.80;38.20
22430;DHT22;11382;48.086;11.632;2023-06-26T07:34:25;42.50;37.60
22430;DHT22;11382;48.086;11.632;2023-06-26T07:37:12;42.20;37.10
22430;DHT22;11382;48.086;11.632;2023-06-26T07:39:43;42.20;37.50
22430;DHT22;11382;48.086;11.632;2023-06-26T07:42:22;42.60;37.60
22430;DHT22;11382;48.086;11.632;2023-06-26T07:47:50;43.40;37.30
22430;DHT22;11382;48.086;11.632;2023-06-26T07:50:19;42.80;37.30
22430;DHT22;11382;48.086;11.632;2023-06-26T07:52:53;42.40;37.60
22430;DHT22;11382;48.086;11.632;2023-06-26T07:55:50;42.70;37.80
22430;DHT22;11382;48.086;11.632;2023-06-26T07:58:29;42.20;37.30
22430;DHT22;11382;48.086;11.632;2023-06-26T08:01:03;41.70;37.60
22430;DHT22;11382;48.086;11.632;2023-06-26T08:04:02;41.60;37.80
22430;DHT22;11382;48.086;11.632;2023-06-26T08:06:32;41.60;37.50
22430;DHT22;11382;48.086;11.632;2023-06-26T08:09:12;41.80;37.90
22430;DHT22;11382;48.086;11.632;2023-06-26T08:11:54;42.40;37.30
22430;DHT22;11382;48.086;11.632;2023-06-26T08:14:29;41.70;38.20
22430;DHT22;11382;48.086;11.632;2023-06-26T08:17:08;42.10;37.40
22430;DHT22;11382;48.086;11.632;2023-06-26T08:19:42;42.40;37.10
22430;DHT22;11382;48.086;11.632;2023-06-26T08:22:18;41.50;38.10
22430;DHT22;11382;48.086;11.632;2023-06-26T08:24:49;43.00;37.50
22430;DHT22;11382;48.086;11.632;2023-06-26T08:27:22;43.60;36.20
22430;DHT22;11382;48.086;11.632;2023-06-26T08:30:20;43.90;36.20
22430;DHT22;11382;48.086;11.632;2023-06-26T08:32:55;44.50;36.30
22430;DHT22;11382;48.086;11.632;2023-06-26T08:35:50;44.00;35.50
22430;DHT22;11382;48.086;11.632;2023-06-26T08:38:24;43.60;36.20
22430;DHT22;11382;48.086;11.632;2023-06-26T08:41:04;44.30;35.80
22430;DHT22;11382;48.086;11.632;2023-06-26T08:43:43;45.00;35.40
22430;DHT22;11382;48.086;11.632;2023-06-26T08:46:25;45.10;35.00
22430;DHT22;11382;48.086;11.632;2023-06-26T08:49:03;44.50;34.50
22430;DHT22;11382;48.086;11.632;2023-06-26T08:51:50;44.10;35.30
22430;DHT22;11382;48.086;11.632;2023-06-26T08:54:42;43.80;34.90
22430;DHT22;11382;48.086;11.632;2023-06-26T08:57:15;43.20;35.80
22430;DHT22;11382;48.086;11.632;2023-06-26T08:59:51;43.00;36.10
22430;DHT22;11382;48.086;11.632;2023-06-26T09:02:23;44.60;35.60
22430;DHT22;11382;48.086;11.632;2023-06-26T09:04:59;44.40;34.20
22430;DHT22;11382;48.086;11.632;2023-06-26T09:07:33;44.80;33.60
22430;DHT22;11382;48.086;11.632;2023-06-26T09:10:07;44.10;33.40
22430;DHT22;11382;48.086;11.632;2023-06-26T09:12:41;43.50;34.10
22430;DHT22;11382;48.086;11.632;2023-06-26T09:15:15;44.00;34.60
22430;DHT22;11382;48.086;11.632;2023-06-26T09:17:56;43.80;34.40
22430;DHT22;11382;48.086;11.632;2023-06-26T09:20:53;44.00;33.80
22430;DHT22;11382;48.086;11.632;2023-06-26T09:23:35;45.10;33.10
22430;DHT22;11382;48.086;11.632;2023-06-26T09:26:06;45.60;33.00
22430;DHT22;11382;48.086;11.632;2023-06-26T09:28:38;44.20;32.90
22430;DHT22;11382;48.086;11.632;2023-06-26T09:31:17;44.50;33.40
22430;DHT22;11382;48.086;11.632;2023-06-26T09:34:14;43.80;33.30
22430;DHT22;11382;48.086;11.632;2023-06-26T09:36:42;44.90;32.30
22430;DHT22;11382;48.086;11.632;2023-06-26T09:39:13;44.70;32.90
22430;DHT22;11382;48.086;11.632;2023-06-26T09:41:42;44.90;33.10
22430;DHT22;11382;48.086;11.632;2023-06-26T09:44:13;44.50;33.40
22430;DHT22;11382;48.086;11.632;2023-06-26T09:46:44;44.00;34.10
22430;DHT22;11382;48.086;11.632;2023-06-26T09:49:13;45.80;33.20
22430;DHT22;11382;48.086;11.632;2023-06-26T09:51:42;46.40;31.80
22430;DHT22;11382;48.086;11.632;2023-06-26T09:54:10;43.60;32.80
22430;DHT22;11382;48.086;11.632;2023-06-26T09:56:38;44.60;32.70
22430;DHT22;11382;48.086;11.632;2023-06-26T09:59:07;45.50;32.80
22430;DHT22;11382;48.086;11.632;2023-06-26T10:01:45;45.80;32.20
22430;DHT22;11382;48.086;11.632;2023-06-26T10:04:15;45.50;31.90
22430;DHT22;11382;48.086;11.632;2023-06-26T10:06:46;44.30;31.90
22430;DHT22;11382;48.086;11.632;2023-06-26T10:09:17;42.20;33.90
22430;DHT22;11382;48.086;11.632;2023-06-26T10:11:51;40.30;34.90
22430;DHT22;11382;48.086;11.632;2023-06-26T10:14:22;41.80;34.10
22430;DHT22;11382;48.086;11.632;2023-06-26T10:16:57;42.90;33.30
22430;DHT22;11382;48.086;11.632;2023-06-26T10:19:28;42.90;32.60
22430;DHT22;11382;48.086;11.632;2023-06-26T10:21:58;41.60;34.20
22430;DHT22;11382;48.086;11.632;2023-06-26T10:24:30;40.60;34.40
22430;DHT22;11382;48.086;11.632;2023-06-26T10:27:02;41.00;34.00
22430;DHT22;11382;48.086;11.632;2023-06-26T10:29:30;43.00;33.30
22430;DHT22;11382;48.086;11.632;2023-06-26T10:32:00;43.00;32.60
22430;DHT22;11382;48.086;11.632;2023-06-26T10:34:32;43.50;33.10
22430;DHT22;11382;48.086;11.632;2023-06-26T10:37:00;44.40;31.90
22430;DHT22;11382;48.086;11.632;2023-06-26T10:39:45;44.70;32.00
22430;DHT22;11382;48.086;11.632;2023-06-26T10:42:15;44.70;31.00
22430;DHT22;11382;48.086;11.632;2023-06-26T10:44:43;43.00;32.50
22430;DHT22;11382;48.086;11.632;2023-06-26T10:47:28;42.50;33.20
22430;DHT22;11382;48.086;11.632;2023-06-26T10:50:16;39.60;34.40
22430;DHT22;11382;48.086;11.632;2023-06-26T10:53:10;36.70;37.70
22430;DHT22;11382;48.086;11.632;2023-06-26T10:55:42;35.80;39.50
22430;DHT22;11382;48.086;11.632;2023-06-26T10:58:31;35.80;39.30
22430;DHT22;11382;48.086;11.632;2023-06-26T11:01:17;36.30;38.60
22430;DHT22;11382;48.086;11.632;2023-06-26T11:03:47;35.50;39.30
22430;DHT22;11382;48.086;11.632;2023-06-26T11:06:20;34.90;39.90
22430;DHT22;11382;48.086;11.632;2023-06-26T11:08:49;37.80;38.10
22430;DHT22;11382;48.086;11.632;2023-06-26T11:11:18;40.20;36.00
22430;DHT22;11382;48.086;11.632;2023-06-26T11:13:46;41.60;34.60
22430;DHT22;11382;48.086;11.632;2023-06-26T11:16:15;43.50;33.20
22430;DHT22;11382;48.086;11.632;2023-06-26T11:18:44;41.90;33.40
22430;DHT22;11382;48.086;11.632;2023-06-26T11:21:13;39.90;35.60
22430;DHT22;11382;48.086;11.632;2023-06-26T11:23:45;40.80;34.80
22430;DHT22;11382;48.086;11.632;2023-06-26T11:26:14;42.10;34.20
22430;DHT22;11382;48.086;11.632;2023-06-26T11:28:50;41.70;34.10
22430;DHT22;11382;48.086;11.632;2023-06-26T11:31:24;39.30;36.10
22430;DHT22;11382;48.086;11.632;2023-06-26T11:33:53;39.80;36.10
22430;DHT22;11382;48.086;11.632;2023-06-26T11:36:23;41.10;35.90
22430;DHT22;11382;48.086;11.632;2023-06-26T11:38:56;41.90;35.30
22430;DHT22;11382;48.086;11.632;2023-06-26T11:41:25;42.50;34.20
22430;DHT22;11382;48.086;11.632;2023-06-26T11:43:54;41.90;34.50
22430;DHT22;11382;48.086;11.632;2023-06-26T11:46:22;40.70;34.60
22430;DHT22;11382;48.086;11.632;2023-06-26T11:48:50;39.80;35.70
22430;DHT22;11382;48.086;11.632;2023-06-26T11:51:18;40.90;35.90
22430;DHT22;11382;48.086;11.632;2023-06-26T11:53:47;41.10;35.20
22430;DHT22;11382;48.086;11.632;2023-06-26T11:56:17;41.30;35.40
22430;DHT22;11382;48.086;11.632;2023-06-26T11:58:59;41.40;35.30
22430;DHT22;11382;48.086;11.632;2023-06-26T12:01:31;39.70;35.70
22430;DHT22;11382;48.086;11.632;2023-06-26T12:04:02;37.90;37.50
22430;DHT22;11382;48.086;11.632;2023-06-26T12:06:32;36.70;39.60
22430;DHT22;11382;48.086;11.632;2023-06-26T12:09:01;36.00;41.30
22430;DHT22;11382;48.086;11.632;2023-06-26T12:11:34;35.60;41.50
22430;DHT22;11382;48.086;11.632;2023-06-26T12:14:03;34.90;42.20
22430;DHT22;11382;48.086;11.632;2023-06-26T12:16:33;34.60;43.80
22430;DHT22;11382;48.086;11.632;2023-06-26T12:19:03;34.70;44.00
22430;DHT22;11382;48.086;11.632;2023-06-26T12:21:44;34.60;44.00
22430;DHT22;11382;48.086;11.632;2023-06-26T12:24:14;34.40;44.20
22430;DHT22;11382;48.086;11.632;2023-06-26T12:26:44;34.10;44.30
22430;DHT22;11382;48.086;11.632;2023-06-26T12:29:13;34.10;45.60
22430;DHT22;11382;48.086;11.632;2023-06-26T12:31:42;34.00;45.40
22430;DHT22;11382;48.086;11.632;2023-06-26T12:34:12;33.80;45.30
22430;DHT22;11382;48.086;11.632;2023-06-26T12:36:45;33.50;44.80
22430;DHT22;11382;48.086;11.632;2023-06-26T12:39:14;33.30;45.70
22430;DHT22;11382;48.086;11.632;2023-06-26T12:41:48;33.40;45.80
22430;DHT22;11382;48.086;11.632;2023-06-26T12:44:17;33.40;45.00
22430;DHT22;11382;48.086;11.632;2023-06-26T12:46:47;33.40;44.50
22430;DHT22;11382;48.086;11.632;2023-06-26T12:49:16;33.30;44.80
22430;DHT22;11382;48.086;11.632;2023-06-26T12:51:58;33.10;45.30
22430;DHT22;11382;48.086;11.632;2023-06-26T12:54:26;33.00;46.80
22430;DHT22;11382;48.086;11.632;2023-06-26T12:56:55;33.40;46.20
22430;DHT22;11382;48.086;11.632;2023-06-26T12:59:23;33.20;45.10
22430;DHT22;11382;48.086;11.632;2023-06-26T13:01:51;33.40;45.50
22430;DHT22;11382;48.086;11.632;2023-06-26T13:04:19;33.60;45.60
22430;DHT22;11382;48.086;11.632;2023-06-26T13:06:47;33.50;46.30
22430;DHT22;11382;48.086;11.632;2023-06-26T13:09:16;33.50;45.60
22430;DHT22;11382;48.086;11.632;2023-06-26T13:11:44;33.40;45.30
22430;DHT22;11382;48.086;11.632;2023-06-26T13:14:14;33.50;46.10
22430;DHT22;11382;48.086;11.632;2023-06-26T13:16:42;33.40;45.00
22430;DHT22;11382;48.086;11.632;2023-06-26T13:19:10;33.20;44.80
22430;DHT22;11382;48.086;11.632;2023-06-26T13:21:38;32.80;45.20
22430;DHT22;11382;48.086;11.632;2023-06-26T13:24:06;32.60;45.60
22430;DHT22;11382;48.086;11.632;2023-06-26T13:26:34;32.50;45.80
22430;DHT22;11382;48.086;11.632;2023-06-26T13:29:04;32.30;46.40
22430;DHT22;11382;48.086;11.632;2023-06-26T13:31:34;32.30;46.70
22430;DHT22;11382;48.086;11.632;2023-06-26T13:34:02;32.40;46.90
22430;DHT22;11382;48.086;11.632;2023-06-26T13:36:32;32.70;46.50
22430;DHT22;11382;48.086;11.632;2023-06-26T13:39:01;32.70;46.70
22430;DHT22;11382;48.086;11.632;2023-06-26T13:41:30;32.60;46.90
22430;DHT22;11382;48.086;11.632;2023-06-26T13:43:58;32.40;47.00
22430;DHT22;11382;48.086;11.632;2023-06-26T13:46:46;32.30;47.60
22430;DHT22;11382;48.086;11.632;2023-06-26T13:49:14;32.30;47.60
22430;DHT22;11382;48.086;11.632;2023-06-26T13:51:42;32.30;47.60
22430;DHT22;11382;48.086;11.632;2023-06-26T13:54:13;32.50;48.00
22430;DHT22;11382;48.086;11.632;2023-06-26T13:56:41;33.00;47.40
22430;DHT22;11382;48.086;11.632;2023-06-26T13:59:09;33.60;47.00
22430;DHT22;11382;48.086;11.632;2023-06-26T14:01:39;33.60;45.90
22430;DHT22;11382;48.086;11.632;2023-06-26T14:04:10;33.20;45.80
22430;DHT22;11382;48.086;11.632;2023-06-26T14:06:38;32.80;46.40
22430;DHT22;11382;48.086;11.632;2023-06-26T14:09:06;32.30;47.50
22430;DHT22;11382;48.086;11.632;2023-06-26T14:11:35;32.00;47.70
22430;DHT22;11382;48.086;11.632;2023-06-26T14:14:03;32.00;48.50
22430;DHT22;11382;48.086;11.632;2023-06-26T14:16:32;32.30;48.30
22430;DHT22;11382;48.086;11.632;2023-06-26T14:19:00;32.50;48.20
22430;DHT22;11382;48.086;11.632;2023-06-26T14:21:30;32.30;48.70
22430;DHT22;11382;48.086;11.632;2023-06-26T14:24:00;32.30;48.40
22430;DHT22;11382;48.086;11.632;2023-06-26T14:26:29;32.30;48.00
22430;DHT22;11382;48.086;11.632;2023-06-26T14:28:58;32.60;49.00
22430;DHT22;11382;48.086;11.632;2023-06-26T14:31:26;33.00;48.10
22430;DHT22;11382;48.086;11.632;2023-06-26T14:33:54;33.10;47.70
22430;DHT22;11382;48.086;11.632;2023-06-26T14:36:22;33.20;47.60
22430;DHT22;11382;48.086;11.632;2023-06-26T14:38:52;32.80;47.70
22430;DHT22;11382;48.086;11.632;2023-06-26T14:41:21;32.90;48.70
22430;DHT22;11382;48.086;11.632;2023-06-26T14:43:49;33.00;48.50
22430;DHT22;11382;48.086;11.632;2023-06-26T14:46:17;32.60;47.70
22430;DHT22;11382;48.086;11.632;2023-06-26T14:48:46;32.10;47.00
22430;DHT22;11382;48.086;11.632;2023-06-26T14:51:14;31.70;47.90
22430;DHT22;11382;48.086;11.632;2023-06-26T14:53:42;31.90;48.50
22430;DHT22;11382;48.086;11.632;2023-06-26T14:56:11;32.20;48.60
22430;DHT22;11382;48.086;11.632;2023-06-26T14:58:39;32.50;48.70
22430;DHT22;11382;48.086;11.632;2023-06-26T15:01:07;32.50;47.80
22430;DHT22;11382;48.086;11.632;2023-06-26T15:03:35;32.50;47.60
22430;DHT22;11382;48.086;11.632;2023-06-26T15:06:04;32.50;46.90
22430;DHT22;11382;48.086;11.632;2023-06-26T15:08:32;32.40;47.60
22430;DHT22;11382;48.086;11.632;2023-06-26T15:11:01;32.40;46.90
22430;DHT22;11382;48.086;11.632;2023-06-26T15:13:31;32.30;46.80
22430;DHT22;11382;48.086;11.632;2023-06-26T15:15:59;32.60;46.50
22430;DHT22;11382;48.086;11.632;2023-06-26T15:18:27;32.80;46.20
22430;DHT22;11382;48.086;11.632;2023-06-26T15:20:55;32.80;46.50
22430;DHT22;11382;48.086;11.632;2023-06-26T15:23:23;32.60;46.40
22430;DHT22;11382;48.086;11.632;2023-06-26T15:25:50;32.40;46.60
22430;DHT22;11382;48.086;11.632;2023-06-26T15:28:18;32.20;46.70
22430;DHT22;11382;48.086;11.632;2023-06-26T15:30:49;32.20;47.00
22430;DHT22;11382;48.086;11.632;2023-06-26T15:33:17;32.00;47.40
22430;DHT22;11382;48.086;11.632;2023-06-26T15:35:45;31.90;47.10
22430;DHT22;11382;48.086;11.632;2023-06-26T15:38:13;31.60;47.40
22430;DHT22;11382;48.086;11.632;2023-06-26T15:40:41;31.40;47.50
22430;DHT22;11382;48.086;11.632;2023-06-26T15:43:09;31.20;48.00
22430;DHT22;11382;48.086;11.632;2023-06-26T15:45:37;30.90;48.60
22430;DHT22;11382;48.086;11.632;2023-06-26T15:48:06;30.70;49.60